sensor_id;sensor_type;location;lat;lon;timestamp;pressure;altitude;pressure_sealevel;temperature;humidity
37848;BME280;23688;33.130;-117.188;2022-10-16T00:00:41;99180.25;;;19.29;77.47
37848;BME280;23688;33.130;-117.188;2022-10-16T00:03:08;99211.84;;;19.37;76.94
37848;BME280;23688;33.130;-117.188;2022-10-16T00:05:44;99219.75;;;19.32;76.92
37848;BME280;23688;33.130;-117.188;2022-10-16T00:08:11;99224.09;;;19.29;77.62
37848;BME280;23688;33.130;-117.188;2022-10-16T00:10:39;99231.16;;;19.30;78.43
37848;BME280;23688;33.130;-117.188;2022-10-16T00:13:07;99245.19;;;19.30;78.97
37848;BME280;23688;33.130;-117.188;2022-10-16T00:15:35;99241.69;;;19.27;79.50
37848;BME280;23688;33.130;-117.188;2022-10-16T00:18:03;99263.63;;;19.41;79.97
37848;BME280;23688;33.130;-117.188;2022-10-16T00:20:30;99264.53;;;19.46;80.82
37848;BME280;23688;33.130;-117.188;2022-10-16T00:22:59;99252.22;;;19.39;80.33
37848;BME280;23688;33.130;-117.188;2022-10-16T00:25:26;99252.19;;;19.33;80.92
37848;BME280;23688;33.130;-117.188;2022-10-16T00:27:52;99246.06;;;19.32;80.98
37848;BME280;23688;33.130;-117.188;2022-10-16T00:30:19;99228.50;;;19.20;81.75
37848;BME280;23688;33.130;-117.188;2022-10-16T00:32:45;99244.25;;;19.16;82.44
37848;BME280;23688;33.130;-117.188;2022-10-16T00:35:11;99264.50;;;19.29;83.08
37848;BME280;23688;33.130;-117.188;2022-10-16T00:37:37;99247.81;;;19.27;83.03
37848;BME280;23688;33.130;-117.188;2022-10-16T00:40:05;99255.72;;;19.33;83.69
37848;BME280;23688;33.130;-117.188;2022-10-16T00:42:32;99245.19;;;19.35;85.04
37848;BME280;23688;33.130;-117.188;2022-10-16T00:45:02;99232.91;;;19.29;85.46
37848;BME280;23688;33.130;-117.188;2022-10-16T00:47:38;99236.41;;;19.28;86.63
37848;BME280;23688;33.130;-117.188;2022-10-16T00:50:33;99236.41;;;19.30;87.33
37848;BME280;23688;33.130;-117.188;2022-10-16T00:53:02;99209.19;;;19.23;87.04
37848;BME280;23688;33.130;-117.188;2022-10-16T00:55:29;99203.03;;;19.21;87.52
37848;BME280;23688;33.130;-117.188;2022-10-16T00:57:57;99196.03;;;19.18;88.05
37848;BME280;23688;33.130;-117.188;2022-10-16T01:00:26;99202.13;;;19.00;88.89
37848;BME280;23688;33.130;-117.188;2022-10-16T01:02:59;99230.03;;;18.65;90.30
37848;BME280;23688;33.130;-117.188;2022-10-16T01:05:49;99237.81;;;18.45;90.49
37848;BME280;23688;33.130;-117.188;2022-10-16T01:08:39;99242.94;;;18.20;89.65
37848;BME280;23688;33.130;-117.188;2022-10-16T01:11:20;99238.50;;;18.13;88.79
37848;BME280;23688;33.130;-117.188;2022-10-16T01:13:54;99243.00;;;18.32;88.39
37848;BME280;23688;33.130;-117.188;2022-10-16T01:23:10;99231.66;;;18.36;87.47
37848;BME280;23688;33.130;-117.188;2022-10-16T01:26:08;99219.47;;;18.51;86.93
37848;BME280;23688;33.130;-117.188;2022-10-16T01:29:03;99223.03;;;18.64;86.73
37848;BME280;23688;33.130;-117.188;2022-10-16T01:31:31;99217.84;;;18.76;87.72
37848;BME280;23688;33.130;-117.188;2022-10-16T01:34:18;99234.53;;;18.86;88.42
37848;BME280;23688;33.130;-117.188;2022-10-16T01:36:52;99228.41;;;18.88;88.59
37848;BME280;23688;33.130;-117.188;2022-10-16T01:39:23;99226.66;;;18.90;89.63
37848;BME280;23688;33.130;-117.188;2022-10-16T01:42:01;99252.09;;;18.94;89.33
37848;BME280;23688;33.130;-117.188;2022-10-16T01:44:32;99287.22;;;19.02;89.91
37848;BME280;23688;33.130;-117.188;2022-10-16T01:47:02;99277.53;;;18.91;90.20
37848;BME280;23688;33.130;-117.188;2022-10-16T01:49:34;99288.03;;;18.94;90.35
37848;BME280;23688;33.130;-117.188;2022-10-16T01:52:06;99294.19;;;18.93;90.89
37848;BME280;23688;33.130;-117.188;2022-10-16T01:54:35;99278.34;;;18.82;90.68
37848;BME280;23688;33.130;-117.188;2022-10-16T01:57:06;99282.72;;;18.80;90.95
37848;BME280;23688;33.130;-117.188;2022-10-16T01:59:36;99288.78;;;18.71;91.06
37848;BME280;23688;33.130;-117.188;2022-10-16T02:02:08;99295.75;;;18.65;90.72
37848;BME280;23688;33.130;-117.188;2022-10-16T02:04:51;99296.56;;;18.53;91.27
37848;BME280;23688;33.130;-117.188;2022-10-16T02:07:20;99268.41;;;18.33;91.23
37848;BME280;23688;33.130;-117.188;2022-10-16T02:09:46;99257.75;;;18.10;92.71
37848;BME280;23688;33.130;-117.188;2022-10-16T02:12:33;99231.13;;;17.69;96.26
37848;BME280;23688;33.130;-117.188;2022-10-16T02:15:03;99263.59;;;17.75;96.54
37848;BME280;23688;33.130;-117.188;2022-10-16T02:17:31;99252.97;;;17.65;96.61
37848;BME280;23688;33.130;-117.188;2022-10-16T02:19:58;99245.19;;;17.75;96.52
37848;BME280;23688;33.130;-117.188;2022-10-16T02:22:30;99223.47;;;17.90;96.08
37848;BME280;23688;33.130;-117.188;2022-10-16T02:27:38;99205.03;;;17.84;96.26
37848;BME280;23688;33.130;-117.188;2022-10-16T02:30:32;99213.91;;;18.02;95.70
37848;BME280;23688;33.130;-117.188;2022-10-16T02:33:02;99192.03;;;18.03;95.65
37848;BME280;23688;33.130;-117.188;2022-10-16T02:35:31;99191.16;;;18.04;95.11
37848;BME280;23688;33.130;-117.188;2022-10-16T02:37:58;99192.06;;;18.09;94.50
37848;BME280;23688;33.130;-117.188;2022-10-16T02:40:26;99204.31;;;18.11;93.86
37848;BME280;23688;33.130;-117.188;2022-10-16T02:42:53;99220.13;;;18.16;93.25
37848;BME280;23688;33.130;-117.188;2022-10-16T02:45:23;99215.69;;;18.06;92.09
37848;BME280;23688;33.130;-117.188;2022-10-16T02:47:49;99237.66;;;18.17;92.31
37848;BME280;23688;33.130;-117.188;2022-10-16T02:50:16;99267.50;;;18.28;92.51
37848;BME280;23688;33.130;-117.188;2022-10-16T02:52:42;99263.13;;;18.30;91.94
37848;BME280;23688;33.130;-117.188;2022-10-16T02:55:09;99244.75;;;18.30;92.36
37848;BME280;23688;33.130;-117.188;2022-10-16T02:57:35;99248.28;;;18.35;92.42
37848;BME280;23688;33.130;-117.188;2022-10-16T03:00:04;99233.34;;;18.28;92.38
37848;BME280;23688;33.130;-117.188;2022-10-16T03:02:31;99235.97;;;18.27;92.10
37848;BME280;23688;33.130;-117.188;2022-10-16T03:04:57;99247.38;;;18.33;92.11
37848;BME280;23688;33.130;-117.188;2022-10-16T03:07:24;99264.94;;;18.34;92.33
37848;BME280;23688;33.130;-117.188;2022-10-16T03:09:50;99258.72;;;18.26;92.52
37848;BME280;23688;33.130;-117.188;2022-10-16T03:12:16;99273.63;;;18.29;92.58
37848;BME280;23688;33.130;-117.188;2022-10-16T03:14:42;99292.03;;;18.30;92.72
37848;BME280;23688;33.130;-117.188;2022-10-16T03:17:09;99294.66;;;18.29;92.63
37848;BME280;23688;33.130;-117.188;2022-10-16T03:19:35;99306.06;;;18.31;92.47
37848;BME280;23688;33.130;-117.188;2022-10-16T03:22:02;99309.59;;;18.34;92.42
37848;BME280;23688;33.130;-117.188;2022-10-16T03:24:28;99290.31;;;18.29;92.63
37848;BME280;23688;33.130;-117.188;2022-10-16T03:26:54;99297.34;;;18.36;92.63
37848;BME280;23688;33.130;-117.188;2022-10-16T03:29:22;99291.16;;;18.30;92.93
37848;BME280;23688;33.130;-117.188;2022-10-16T03:31:49;99284.00;;;18.09;93.27
37848;BME280;23688;33.130;-117.188;2022-10-16T03:34:15;99289.06;;;17.87;95.42
37848;BME280;23688;33.130;-117.188;2022-10-16T03:36:42;99298.72;;;17.87;96.50
37848;BME280;23688;33.130;-117.188;2022-10-16T03:39:08;99282.84;;;17.79;97.00
37848;BME280;23688;33.130;-117.188;2022-10-16T03:41:34;99276.59;;;17.63;98.31
37848;BME280;23688;33.130;-117.188;2022-10-16T03:44:01;99269.34;;;17.38;100.00
37848;BME280;23688;33.130;-117.188;2022-10-16T03:46:27;99254.88;;;16.94;100.00
37848;BME280;23688;33.130;-117.188;2022-10-16T03:48:53;99245.75;;;16.67;100.00
37848;BME280;23688;33.130;-117.188;2022-10-16T03:51:20;99270.25;;;16.69;100.00
37848;BME280;23688;33.130;-117.188;2022-10-16T03:53:46;99296.44;;;16.66;100.00
37848;BME280;23688;33.130;-117.188;2022-10-16T03:56:12;99293.00;;;16.71;100.00
37848;BME280;23688;33.130;-117.188;2022-10-16T03:58:40;99308.03;;;16.81;100.00
37848;BME280;23688;33.130;-117.188;2022-10-16T04:01:06;99297.53;;;16.81;100.00
37848;BME280;23688;33.130;-117.188;2022-10-16T04:03:33;99295.88;;;16.87;100.00
37848;BME280;23688;33.130;-117.188;2022-10-16T04:06:00;99293.25;;;16.87;100.00
37848;BME280;23688;33.130;-117.188;2022-10-16T04:08:26;99285.34;;;16.83;100.00
37848;BME280;23688;33.130;-117.188;2022-10-16T04:10:53;99290.78;;;17.00;100.00
37848;BME280;23688;33.130;-117.188;2022-10-16T04:13:19;99287.38;;;17.07;100.00
37848;BME280;23688;33.130;-117.188;2022-10-16T04:15:45;99302.28;;;17.11;100.00
37848;BME280;23688;33.130;-117.188;2022-10-16T04:18:12;99299.50;;;16.99;100.00
37848;BME280;23688;33.130;-117.188;2022-10-16T04:20:38;99300.38;;;16.99;100.00
37848;BME280;23688;33.130;-117.188;2022-10-16T04:23:05;99316.53;;;17.31;100.00
37848;BME280;23688;33.130;-117.188;2022-10-16T04:25:32;99317.59;;;17.49;100.00
37848;BME280;23688;33.130;-117.188;2022-10-16T04:27:58;99329.06;;;17.60;100.00
37848;BME280;23688;33.130;-117.188;2022-10-16T04:30:25;99331.78;;;17.69;100.00
37848;BME280;23688;33.130;-117.188;2022-10-16T04:32:51;99325.66;;;17.69;100.00
37848;BME280;23688;33.130;-117.188;2022-10-16T04:35:20;99346.84;;;17.83;100.00
37848;BME280;23688;33.130;-117.188;2022-10-16T04:37:48;99337.22;;;17.83;99.95
37848;BME280;23688;33.130;-117.188;2022-10-16T04:40:16;99350.44;;;17.94;99.79
37848;BME280;23688;33.130;-117.188;2022-10-16T04:42:43;99353.94;;;17.96;99.23
37848;BME280;23688;33.130;-117.188;2022-10-16T04:45:09;99355.63;;;17.89;99.20
37848;BME280;23688;33.130;-117.188;2022-10-16T04:47:36;99356.44;;;17.82;99.37
37848;BME280;23688;33.130;-117.188;2022-10-16T04:50:03;99346.75;;;17.78;99.67
37848;BME280;23688;33.130;-117.188;2022-10-16T04:52:29;99361.72;;;17.84;99.25
37848;BME280;23688;33.130;-117.188;2022-10-16T04:54:57;99363.44;;;17.80;99.22
37848;BME280;23688;33.130;-117.188;2022-10-16T04:57:27;99378.44;;;17.90;98.90
37848;BME280;23688;33.130;-117.188;2022-10-16T04:59:54;99383.63;;;17.86;98.46
37848;BME280;23688;33.130;-117.188;2022-10-16T05:02:20;99389.72;;;17.80;98.71
37848;BME280;23688;33.130;-117.188;2022-10-16T05:04:46;99389.75;;;17.86;98.63
37848;BME280;23688;33.130;-117.188;2022-10-16T05:07:12;99391.50;;;17.87;98.84
37848;BME280;23688;33.130;-117.188;2022-10-16T05:09:39;99392.44;;;17.94;99.05
37848;BME280;23688;33.130;-117.188;2022-10-16T05:12:05;99408.22;;;17.97;99.26
37848;BME280;23688;33.130;-117.188;2022-10-16T05:14:32;99410.88;;;17.97;98.91
37848;BME280;23688;33.130;-117.188;2022-10-16T05:16:59;99391.63;;;17.98;98.60
37848;BME280;23688;33.130;-117.188;2022-10-16T05:19:26;99388.16;;;18.01;97.95
37848;BME280;23688;33.130;-117.188;2022-10-16T05:21:52;99382.06;;;18.06;97.88
37848;BME280;23688;33.130;-117.188;2022-10-16T05:24:18;99373.25;;;18.01;97.54
37848;BME280;23688;33.130;-117.188;2022-10-16T05:26:45;99366.28;;;18.03;97.88
37848;BME280;23688;33.130;-117.188;2022-10-16T05:29:11;99373.31;;;18.06;97.86
37848;BME280;23688;33.130;-117.188;2022-10-16T05:31:37;99368.94;;;18.08;98.54
37848;BME280;23688;33.130;-117.188;2022-10-16T05:34:03;99353.13;;;18.02;98.96
37848;BME280;23688;33.130;-117.188;2022-10-16T05:36:30;99330.28;;;17.94;99.15
37848;BME280;23688;33.130;-117.188;2022-10-16T05:38:56;99328.53;;;17.90;99.46
37848;BME280;23688;33.130;-117.188;2022-10-16T05:41:22;99336.34;;;17.87;100.00
37848;BME280;23688;33.130;-117.188;2022-10-16T05:43:51;99333.41;;;17.57;99.92
37848;BME280;23688;33.130;-117.188;2022-10-16T05:46:18;99342.84;;;17.39;100.00
37848;BME280;23688;33.130;-117.188;2022-10-16T05:48:44;99339.84;;;17.07;100.00
37848;BME280;23688;33.130;-117.188;2022-10-16T05:51:12;99338.88;;;17.02;100.00
37848;BME280;23688;33.130;-117.188;2022-10-16T05:53:40;99341.63;;;17.11;100.00
37848;BME280;23688;33.130;-117.188;2022-10-16T05:56:09;99346.22;;;17.29;100.00
37848;BME280;23688;33.130;-117.188;2022-10-16T05:58:37;99355.03;;;17.34;100.00
37848;BME280;23688;33.130;-117.188;2022-10-16T06:01:09;99343.63;;;17.32;100.00
37848;BME280;23688;33.130;-117.188;2022-10-16T06:03:37;99344.50;;;17.32;100.00
37848;BME280;23688;33.130;-117.188;2022-10-16T06:06:13;99371.91;;;17.58;100.00
37848;BME280;23688;33.130;-117.188;2022-10-16T06:08:41;99364.66;;;17.35;100.00
37848;BME280;23688;33.130;-117.188;2022-10-16T06:11:10;99361.75;;;17.12;100.00
37848;BME280;23688;33.130;-117.188;2022-10-16T06:13:37;99360.84;;;17.10;100.00
37848;BME280;23688;33.130;-117.188;2022-10-16T06:16:05;99348.69;;;17.18;100.00
37848;BME280;23688;33.130;-117.188;2022-10-16T06:18:32;99355.03;;;17.34;100.00
37848;BME280;23688;33.130;-117.188;2022-10-16T06:20:58;99348.16;;;17.45;100.00
37848;BME280;23688;33.130;-117.188;2022-10-16T06:23:25;99348.13;;;17.42;100.00
37848;BME280;23688;33.130;-117.188;2022-10-16T06:25:54;99347.38;;;17.55;100.00
37848;BME280;23688;33.130;-117.188;2022-10-16T06:28:22;99353.44;;;17.50;100.00
37848;BME280;23688;33.130;-117.188;2022-10-16T06:30:58;99363.19;;;17.59;100.00
37848;BME280;23688;33.130;-117.188;2022-10-16T06:33:24;99371.13;;;17.68;99.87
37848;BME280;23688;33.130;-117.188;2022-10-16T06:35:51;99379.00;;;17.68;99.19
37848;BME280;23688;33.130;-117.188;2022-10-16T06:38:17;99365.84;;;17.65;99.19
37848;BME280;23688;33.130;-117.188;2022-10-16T06:40:44;99390.63;;;17.85;98.43
37848;BME280;23688;33.130;-117.188;2022-10-16T06:43:10;99394.16;;;17.89;98.32
37848;BME280;23688;33.130;-117.188;2022-10-16T06:45:39;99396.81;;;17.90;97.75
37848;BME280;23688;33.130;-117.188;2022-10-16T06:48:05;99382.78;;;17.88;97.12
37848;BME280;23688;33.130;-117.188;2022-10-16T06:50:31;99384.47;;;17.85;96.91
37848;BME280;23688;33.130;-117.188;2022-10-16T06:52:58;99372.97;;;17.75;96.78
37848;BME280;23688;33.130;-117.188;2022-10-16T06:55:24;99386.25;;;17.87;96.82
37848;BME280;23688;33.130;-117.188;2022-10-16T06:57:50;99376.66;;;17.91;96.48
37848;BME280;23688;33.130;-117.188;2022-10-16T07:00:17;99365.28;;;17.90;96.20
37848;BME280;23688;33.130;-117.188;2022-10-16T07:02:43;99374.13;;;17.99;96.67
37848;BME280;23688;33.130;-117.188;2022-10-16T07:05:09;99368.84;;;17.97;96.35
37848;BME280;23688;33.130;-117.188;2022-10-16T07:07:35;99358.31;;;17.97;96.62
37848;BME280;23688;33.130;-117.188;2022-10-16T07:10:02;99360.13;;;18.01;96.88
37848;BME280;23688;33.130;-117.188;2022-10-16T07:12:28;99350.44;;;17.97;97.05
37848;BME280;23688;33.130;-117.188;2022-10-16T07:14:54;99332.03;;;17.92;97.37
37848;BME280;23688;33.130;-117.188;2022-10-16T07:17:21;99342.59;;;18.02;97.51
37848;BME280;23688;33.130;-117.188;2022-10-16T07:19:48;99364.53;;;18.07;97.20
37848;BME280;23688;33.130;-117.188;2022-10-16T07:22:14;99350.53;;;18.05;97.27
37848;BME280;23688;33.130;-117.188;2022-10-16T07:24:41;99349.66;;;18.06;96.74
37848;BME280;23688;33.130;-117.188;2022-10-16T07:27:07;99354.94;;;18.09;96.55
37848;BME280;23688;33.130;-117.188;2022-10-16T07:29:33;99348.81;;;18.08;96.34
37848;BME280;23688;33.130;-117.188;2022-10-16T07:31:59;99356.72;;;18.13;96.62
37848;BME280;23688;33.130;-117.188;2022-10-16T07:34:27;99354.06;;;18.11;96.65
37848;BME280;23688;33.130;-117.188;2022-10-16T07:36:53;99357.59;;;18.13;96.98
37848;BME280;23688;33.130;-117.188;2022-10-16T07:39:20;99361.13;;;18.15;97.10
37848;BME280;23688;33.130;-117.188;2022-10-16T07:41:46;99355.84;;;18.14;97.41
37848;BME280;23688;33.130;-117.188;2022-10-16T07:44:12;99359.34;;;18.13;97.48
37848;BME280;23688;33.130;-117.188;2022-10-16T07:46:39;99364.66;;;18.17;97.48
37848;BME280;23688;33.130;-117.188;2022-10-16T07:49:05;99364.63;;;18.14;97.62
37848;BME280;23688;33.130;-117.188;2022-10-16T07:51:32;99375.16;;;18.19;97.60
37848;BME280;23688;33.130;-117.188;2022-10-16T07:53:58;99363.75;;;18.12;97.61
37848;BME280;23688;33.130;-117.188;2022-10-16T07:56:25;99375.16;;;18.17;98.16
37848;BME280;23688;33.130;-117.188;2022-10-16T07:58:51;99371.59;;;18.09;98.50
37848;BME280;23688;33.130;-117.188;2022-10-16T08:01:18;99383.84;;;18.09;98.31
37848;BME280;23688;33.130;-117.188;2022-10-16T08:03:47;99386.50;;;18.10;98.72
37848;BME280;23688;33.130;-117.188;2022-10-16T08:06:14;99396.13;;;18.10;98.61
37848;BME280;23688;33.130;-117.188;2022-10-16T08:08:41;99394.31;;;18.06;98.94
37848;BME280;23688;33.130;-117.188;2022-10-16T08:11:07;99409.22;;;18.08;99.40
37848;BME280;23688;33.130;-117.188;2022-10-16T08:13:34;99413.63;;;18.11;99.77
37848;BME280;23688;33.130;-117.188;2022-10-16T08:16:01;99412.75;;;18.10;99.72
37848;BME280;23688;33.130;-117.188;2022-10-16T08:18:27;99410.09;;;18.09;99.41
37848;BME280;23688;33.130;-117.188;2022-10-16T08:20:57;99397.84;;;18.05;99.63
37848;BME280;23688;33.130;-117.188;2022-10-16T08:23:25;99409.22;;;18.05;99.77
37848;BME280;23688;33.130;-117.188;2022-10-16T08:25:53;99411.84;;;18.05;100.00
37848;BME280;23688;33.130;-117.188;2022-10-16T08:28:20;99414.44;;;18.04;100.00
37848;BME280;23688;33.130;-117.188;2022-10-16T08:30:46;99408.31;;;18.03;100.00
37848;BME280;23688;33.130;-117.188;2022-10-16T08:33:13;99403.88;;;17.99;100.00
37848;BME280;23688;33.130;-117.188;2022-10-16T08:35:39;99408.28;;;18.02;100.00
37848;BME280;23688;33.130;-117.188;2022-10-16T08:38:06;99411.78;;;18.01;100.00
37848;BME280;23688;33.130;-117.188;2022-10-16T08:40:35;99424.00;;;17.97;100.00
37848;BME280;23688;33.130;-117.188;2022-10-16T08:43:34;99426.59;;;17.92;100.00
37848;BME280;23688;33.130;-117.188;2022-10-16T08:46:45;99425.69;;;17.92;100.00
37848;BME280;23688;33.130;-117.188;2022-10-16T08:49:16;99416.94;;;17.90;100.00
37848;BME280;23688;33.130;-117.188;2022-10-16T08:51:43;99394.03;;;17.80;100.00
37848;BME280;23688;33.130;-117.188;2022-10-16T08:54:16;99412.53;;;17.89;100.00
37848;BME280;23688;33.130;-117.188;2022-10-16T08:56:47;99404.59;;;17.84;100.00
37848;BME280;23688;33.130;-117.188;2022-10-16T08:59:14;99409.06;;;17.91;100.00
37848;BME280;23688;33.130;-117.188;2022-10-16T09:01:44;99397.69;;;17.91;100.00
37848;BME280;23688;33.130;-117.188;2022-10-16T09:07:00;99367.75;;;17.80;100.00
37848;BME280;23688;33.130;-117.188;2022-10-16T09:09:50;99366.81;;;17.71;100.00
37848;BME280;23688;33.130;-117.188;2022-10-16T09:12:45;99395.78;;;17.79;100.00
37848;BME280;23688;33.130;-117.188;2022-10-16T09:23:27;99394.03;;;17.80;100.00
37848;BME280;23688;33.130;-117.188;2022-10-16T09:25:55;99400.13;;;17.77;100.00
37848;BME280;23688;33.130;-117.188;2022-10-16T09:28:22;99404.41;;;17.69;100.00
37848;BME280;23688;33.130;-117.188;2022-10-16T09:30:48;99412.34;;;17.73;100.00
37848;BME280;23688;33.130;-117.188;2022-10-16T09:33:17;99409.75;;;17.76;100.00
37848;BME280;23688;33.130;-117.188;2022-10-16T09:35:44;99413.38;;;17.83;100.00
37848;BME280;23688;33.130;-117.188;2022-10-16T09:38:26;99393.06;;;17.71;99.57
37848;BME280;23688;33.130;-117.188;2022-10-16T09:40:54;99395.84;;;17.81;99.45
37848;BME280;23688;33.130;-117.188;2022-10-16T09:49:01;99388.00;;;17.85;98.73
37848;BME280;23688;33.130;-117.188;2022-10-16T09:51:36;99397.72;;;17.94;99.06
37848;BME280;23688;33.130;-117.188;2022-10-16T09:54:14;99392.47;;;17.95;98.80
37848;BME280;23688;33.130;-117.188;2022-10-16T09:56:41;99392.50;;;17.99;98.76
37848;BME280;23688;33.130;-117.188;2022-10-16T09:59:18;99385.50;;;17.98;98.23
37848;BME280;23688;33.130;-117.188;2022-10-16T10:01:50;99382.88;;;17.98;98.17
37848;BME280;23688;33.130;-117.188;2022-10-16T10:04:20;99382.88;;;17.99;98.20
37848;BME280;23688;33.130;-117.188;2022-10-16T10:06:50;99387.28;;;18.02;98.28
37848;BME280;23688;33.130;-117.188;2022-10-16T10:09:29;99384.59;;;17.97;98.29
37848;BME280;23688;33.130;-117.188;2022-10-16T10:11:59;99387.28;;;18.02;98.07
37848;BME280;23688;33.130;-117.188;2022-10-16T10:14:40;99396.94;;;18.03;98.31
37848;BME280;23688;33.130;-117.188;2022-10-16T10:17:16;99402.19;;;18.03;98.22
37848;BME280;23688;33.130;-117.188;2022-10-16T10:19:51;99410.06;;;18.04;98.43
37848;BME280;23688;33.130;-117.188;2022-10-16T10:35:33;99380.25;;;17.99;98.51
37848;BME280;23688;33.130;-117.188;2022-10-16T10:47:17;99406.63;;;18.10;98.03
37848;BME280;23688;33.130;-117.188;2022-10-16T11:01:16;99395.09;;;17.95;97.68
37848;BME280;23688;33.130;-117.188;2022-10-16T11:04:18;99405.69;;;18.03;97.44
37848;BME280;23688;33.130;-117.188;2022-10-16T11:06:53;99406.56;;;18.02;96.87
37848;BME280;23688;33.130;-117.188;2022-10-16T11:09:25;99397.75;;;17.99;96.90
37848;BME280;23688;33.130;-117.188;2022-10-16T11:17:55;99407.44;;;18.04;96.29
37848;BME280;23688;33.130;-117.188;2022-10-16T11:20:28;99406.56;;;18.04;96.01
37848;BME280;23688;33.130;-117.188;2022-10-16T11:25:33;99404.75;;;17.98;96.19
37848;BME280;23688;33.130;-117.188;2022-10-16T11:28:18;99397.75;;;17.99;95.76
37848;BME280;23688;33.130;-117.188;2022-10-16T11:30:51;99396.00;;;17.99;95.64
37848;BME280;23688;33.130;-117.188;2022-10-16T11:36:40;99415.31;;;18.04;96.18
37848;BME280;23688;33.130;-117.188;2022-10-16T11:39:21;99425.84;;;18.06;95.99
37848;BME280;23688;33.130;-117.188;2022-10-16T11:47:45;99424.97;;;18.07;96.11
37848;BME280;23688;33.130;-117.188;2022-10-16T11:55:44;99417.97;;;18.06;97.12
37848;BME280;23688;33.130;-117.188;2022-10-16T12:01:16;99429.41;;;18.09;97.39
37848;BME280;23688;33.130;-117.188;2022-10-16T12:04:21;99432.84;;;18.02;97.78
37848;BME280;23688;33.130;-117.188;2022-10-16T12:07:07;99430.19;;;18.04;97.68
37848;BME280;23688;33.130;-117.188;2022-10-16T12:09:38;99434.59;;;18.06;97.57
37848;BME280;23688;33.130;-117.188;2022-10-16T12:12:24;99430.28;;;18.10;97.76
37848;BME280;23688;33.130;-117.188;2022-10-16T12:15:01;99421.50;;;18.08;97.79
37848;BME280;23688;33.130;-117.188;2022-10-16T12:17:38;99429.41;;;18.11;97.66
37848;BME280;23688;33.130;-117.188;2022-10-16T12:22:54;99423.28;;;18.10;97.91
37848;BME280;23688;33.130;-117.188;2022-10-16T12:25:32;99442.63;;;18.20;97.70
37848;BME280;23688;33.130;-117.188;2022-10-16T12:28:04;99418.88;;;18.11;97.29
37848;BME280;23688;33.130;-117.188;2022-10-16T12:30:35;99452.28;;;18.23;97.19
37848;BME280;23688;33.130;-117.188;2022-10-16T12:33:18;99446.16;;;18.22;96.97
37848;BME280;23688;33.130;-117.188;2022-10-16T12:35:46;99445.25;;;18.17;96.97
37848;BME280;23688;33.130;-117.188;2022-10-16T12:38:24;99447.00;;;18.21;96.98
37848;BME280;23688;33.130;-117.188;2022-10-16T12:41:09;99447.00;;;18.20;97.04
37848;BME280;23688;33.130;-117.188;2022-10-16T12:43:44;99446.16;;;18.24;96.84
37848;BME280;23688;33.130;-117.188;2022-10-16T12:48:42;99441.81;;;18.26;96.80
37848;BME280;23688;33.130;-117.188;2022-10-16T12:51:34;99453.16;;;18.23;96.57
37848;BME280;23688;33.130;-117.188;2022-10-16T12:54:15;99436.47;;;18.15;96.48
37848;BME280;23688;33.130;-117.188;2022-10-16T13:08:02;99453.06;;;18.14;97.23
37848;BME280;23688;33.130;-117.188;2022-10-16T13:13:39;99432.03;;;18.11;97.81
37848;BME280;23688;33.130;-117.188;2022-10-16T13:19:35;99454.78;;;18.09;97.92
37848;BME280;23688;33.130;-117.188;2022-10-16T13:29:58;99464.34;;;18.02;98.22
37848;BME280;23688;33.130;-117.188;2022-10-16T13:32:26;99459.06;;;18.01;98.24
37848;BME280;23688;33.130;-117.188;2022-10-16T13:34:53;99469.63;;;18.07;97.65
37848;BME280;23688;33.130;-117.188;2022-10-16T13:37:24;99457.31;;;18.01;96.88
37848;BME280;23688;33.130;-117.188;2022-10-16T13:39:51;99469.63;;;18.07;96.64
37848;BME280;23688;33.130;-117.188;2022-10-16T13:42:24;99460.88;;;18.06;96.73
37848;BME280;23688;33.130;-117.188;2022-10-16T13:44:53;99452.94;;;18.00;96.58
37848;BME280;23688;33.130;-117.188;2022-10-16T13:47:25;99457.41;;;18.09;96.42
37848;BME280;23688;33.130;-117.188;2022-10-16T13:52:27;99455.63;;;18.06;96.42
37848;BME280;23688;33.130;-117.188;2022-10-16T13:54:53;99451.25;;;18.05;96.14
37848;BME280;23688;33.130;-117.188;2022-10-16T13:57:23;99469.69;;;18.10;95.84
37848;BME280;23688;33.130;-117.188;2022-10-16T13:59:50;99482.84;;;18.13;95.73
37848;BME280;23688;33.130;-117.188;2022-10-16T14:02:37;99493.34;;;18.11;95.58
37848;BME280;23688;33.130;-117.188;2022-10-16T14:05:09;99490.72;;;18.10;95.28
37848;BME280;23688;33.130;-117.188;2022-10-16T14:07:37;99500.34;;;18.11;95.43
37848;BME280;23688;33.130;-117.188;2022-10-16T14:10:07;99495.97;;;18.11;95.37
37848;BME280;23688;33.130;-117.188;2022-10-16T14:12:40;99497.75;;;18.12;95.49
37848;BME280;23688;33.130;-117.188;2022-10-16T14:15:17;99510.94;;;18.17;96.03
37848;BME280;23688;33.130;-117.188;2022-10-16T14:17:46;99506.47;;;18.10;94.72
37848;BME280;23688;33.130;-117.188;2022-10-16T14:20:15;99519.66;;;18.14;94.53
37848;BME280;23688;33.130;-117.188;2022-10-16T14:22:42;99524.06;;;18.17;94.21
37848;BME280;23688;33.130;-117.188;2022-10-16T14:28:18;99527.56;;;18.17;94.10
37848;BME280;23688;33.130;-117.188;2022-10-16T14:30:55;99538.13;;;18.22;94.13
37848;BME280;23688;33.130;-117.188;2022-10-16T14:33:31;99531.06;;;18.18;94.56
37848;BME280;23688;33.130;-117.188;2022-10-16T14:36:05;99539.88;;;18.20;95.00
37848;BME280;23688;33.130;-117.188;2022-10-16T14:38:33;99536.41;;;18.26;95.38
37848;BME280;23688;33.130;-117.188;2022-10-16T14:41:03;99547.84;;;18.31;95.40
37848;BME280;23688;33.130;-117.188;2022-10-16T14:43:41;99548.78;;;18.36;95.53
37848;BME280;23688;33.130;-117.188;2022-10-16T14:46:16;99557.50;;;18.33;95.60